KCRW Airport (Yeager) Information

FAA: CRW - ICAO: KCRW

KCRW Airport Location

State West Virginia
County Kanawha
City Charleston
KCRW Airport is 3 miles east of Charleston, WV.
Latitude 38-22-33.6455N
Longitude 081-35-34.4144W
Elevation 947ft

KCRW Airport METARs

METAR KCRW 251754Z 13017G26KT 5SM -RA BR SCT028 BKN045 BKN065 14/12 A2972 RMK AO2 PK WND 12026/1753 PRESFR SLP061 P0013 60013 T01440122 10183 20100 58040
Altimeter 29.72"
Temperature 14.4°C (57.9°F)
Wind 130° at 17KT with gusts to 26KT
Clouds scattered at 2,800ft broken at 4,500ft broken at 6,500ft
Visibility 5.0mi
Time observed: 2021-10-25T17:54:00Z

KCRW Airport Details

Status Operational
Activation August 1947
Ownership Public
Usage Public
Chart CINCINNATI
ATC on-site Yes
Beacon schedule sunset-sunrise
Beacon color clear green

KCRW Airport Contacts

Owner CENTRAL WVA REG ARPT AUTH
Owner address 100 AIRPORT ROAD SUITE 175, CHARLESTON, WV 25311
Owner phone (304) 344-8033
Manager KENNETH GORDON
Manager address N/A, N/A
Manager phone 509-577-3719

KCRW Airport (Yeager) Radio Frequencies

KCRW (Airport) Radio Frequencies

UNICOM 122.95
Common traffic advisory frequency (CTAF) N/A